臺北終端管制區 - 桃園北區雷達席

METAR RCTP 191830Z 17006KT 140V200 9999 FEW015 SCT035 BKN150 24/22 Q1008 NOSIG RMK A2978(T)=

站台狀態:Offline
最後更新:2024-04-20 02:30:01